createdAt,value
2018-06-11T00:03:29.782Z,20.82
2018-06-11T00:08:24.363Z,20.87
2018-06-11T00:13:18.898Z,20.97
2018-06-11T00:18:13.438Z,20.72
2018-06-11T00:23:08.013Z,20.85
2018-06-11T00:28:02.588Z,20.95
2018-06-11T00:32:57.125Z,20.90
2018-06-11T00:37:51.761Z,20.84
2018-06-11T00:42:46.263Z,20.84
2018-06-11T00:47:40.878Z,20.71
2018-06-11T00:52:35.425Z,20.91
2018-06-11T00:57:29.982Z,21.00
2018-06-11T01:02:24.534Z,20.76
2018-06-11T01:07:19.090Z,20.60
2018-06-11T01:12:13.623Z,20.67
2018-06-11T01:17:08.212Z,20.38
2018-06-11T01:22:02.788Z,20.49
2018-06-11T01:31:55.179Z,20.32
2018-06-11T01:36:49.759Z,20.33
2018-06-11T01:41:44.338Z,20.28
2018-06-11T01:46:38.920Z,20.31
2018-06-11T01:51:33.487Z,20.29
2018-06-11T01:56:28.011Z,20.21
2018-06-11T02:01:22.530Z,19.91
2018-06-11T02:06:17.094Z,19.81
2018-06-11T02:11:11.620Z,19.81
2018-06-11T02:16:06.264Z,20.05
2018-06-11T02:21:00.785Z,19.98
2018-06-11T02:25:55.346Z,19.75
2018-06-11T02:30:49.856Z,19.72
2018-06-11T02:35:44.430Z,19.94
2018-06-11T02:40:38.974Z,19.87
2018-06-11T02:45:33.575Z,19.69
2018-06-11T02:50:28.094Z,19.74
2018-06-11T02:55:22.628Z,19.75
2018-06-11T03:00:17.176Z,19.62
2018-06-11T03:05:11.739Z,19.60
2018-06-11T03:10:06.405Z,19.52
2018-06-11T03:15:00.952Z,19.57
2018-06-11T03:19:55.499Z,19.36
2018-06-11T03:24:50.019Z,19.20
2018-06-11T03:29:44.545Z,19.25
2018-06-11T03:34:39.059Z,19.48
2018-06-11T03:39:33.614Z,19.55
2018-06-11T03:44:28.420Z,19.74
2018-06-11T03:49:22.950Z,19.70
2018-06-11T03:54:17.466Z,19.60
2018-06-11T03:59:12.040Z,19.78
2018-06-11T04:04:06.622Z,19.79
2018-06-11T04:09:01.167Z,19.74
2018-06-11T04:13:55.753Z,19.88
2018-06-11T04:18:50.258Z,19.65
2018-06-11T04:23:44.871Z,19.75
2018-06-11T04:28:39.410Z,20.00
2018-06-11T04:33:33.942Z,20.20
2018-06-11T04:38:28.566Z,20.44
2018-06-11T04:43:23.138Z,20.90
2018-06-11T04:48:17.683Z,21.25
2018-06-11T04:53:12.195Z,21.69
2018-06-11T04:58:06.748Z,22.08
2018-06-11T05:03:01.319Z,22.18
2018-06-11T05:07:56.024Z,22.49
2018-06-11T05:12:50.563Z,23.03
2018-06-11T05:17:45.109Z,23.33
2018-06-11T05:22:39.682Z,23.12
2018-06-11T05:27:34.220Z,23.38
2018-06-11T05:32:28.785Z,24.08
2018-06-11T05:37:23.355Z,24.05
2018-06-11T05:42:17.878Z,24.33
2018-06-11T05:47:12.421Z,24.24
2018-06-11T05:52:07.227Z,24.05
2018-06-11T05:57:01.803Z,24.34
2018-06-11T06:01:56.356Z,23.73
2018-06-11T06:06:50.899Z,23.26
2018-06-11T06:11:45.442Z,23.12
2018-06-11T06:16:39.999Z,22.84
2018-06-11T06:21:34.626Z,23.05
2018-06-11T06:26:29.210Z,23.40
2018-06-11T06:31:23.781Z,23.45
2018-06-11T06:36:18.337Z,23.64
2018-06-11T06:41:12.893Z,23.90
2018-06-11T06:46:07.475Z,24.08
2018-06-11T06:51:02.010Z,23.97
2018-06-11T06:55:56.617Z,23.84
2018-06-11T07:00:54.126Z,23.58
2018-06-11T07:05:48.668Z,23.65
2018-06-11T07:10:43.202Z,23.92
2018-06-11T07:15:37.794Z,24.38
2018-06-11T07:20:32.359Z,24.31
2018-06-11T07:25:26.929Z,25.35
2018-06-11T07:30:21.501Z,26.93
2018-06-11T07:40:08.949Z,28.04
2018-06-11T07:45:03.539Z,27.77
2018-06-11T07:49:58.090Z,27.36
2018-06-11T07:54:52.646Z,27.70
2018-06-11T07:59:47.198Z,27.21
2018-06-11T08:04:41.819Z,26.81
2018-06-11T08:09:36.407Z,26.47
2018-06-11T08:14:31.004Z,26.23
2018-06-11T08:19:25.634Z,25.89
2018-06-11T08:24:20.232Z,26.18
2018-06-11T08:29:14.860Z,26.38
2018-06-11T08:34:09.418Z,26.21
2018-06-11T08:39:04.815Z,26.12
2018-06-11T08:43:59.366Z,26.33
2018-06-11T08:48:53.929Z,26.09
2018-06-11T08:53:48.517Z,26.74
2018-06-11T08:58:43.955Z,27.72
2018-06-11T09:03:38.487Z,27.99
2018-06-11T09:08:33.039Z,28.37
2018-06-11T09:13:27.593Z,28.28
2018-06-11T09:18:22.100Z,28.37
2018-06-11T09:23:16.368Z,27.91
2018-06-11T09:28:10.915Z,27.91
2018-06-11T09:33:05.593Z,27.41
2018-06-11T09:38:00.191Z,27.14
2018-06-11T09:42:54.792Z,26.76
2018-06-11T09:47:49.397Z,26.54
2018-06-11T09:52:43.940Z,26.59
2018-06-11T09:57:38.507Z,26.89
2018-06-11T10:02:33.055Z,27.32
2018-06-11T10:07:27.622Z,27.34
2018-06-11T10:12:22.174Z,27.67
2018-06-11T10:17:16.690Z,27.52
2018-06-11T10:22:11.248Z,27.65
2018-06-11T10:27:05.842Z,27.55
2018-06-11T10:32:00.377Z,27.41
2018-06-11T10:36:54.983Z,26.98
2018-06-11T10:41:49.212Z,26.98
2018-06-11T10:46:43.785Z,26.95
2018-06-11T10:51:38.314Z,26.98
2018-06-11T10:56:32.918Z,26.90
2018-06-11T11:01:27.568Z,26.73
2018-06-11T11:06:22.068Z,26.25
2018-06-11T11:11:16.640Z,25.73
2018-06-11T11:16:11.255Z,25.63
2018-06-11T11:21:06.014Z,25.37
2018-06-11T11:26:00.663Z,24.89
2018-06-11T11:30:55.222Z,25.23
2018-06-11T11:35:49.824Z,25.53
2018-06-11T11:40:44.412Z,25.46
2018-06-11T11:45:39.006Z,25.11
2018-06-11T11:50:33.613Z,24.44
2018-06-11T11:55:28.199Z,24.14
2018-06-11T12:00:22.750Z,23.57
2018-06-11T12:05:17.306Z,23.22
2018-06-11T12:10:11.883Z,23.40
2018-06-11T12:15:06.639Z,23.47
2018-06-11T12:20:01.287Z,23.70
2018-06-11T12:24:55.993Z,23.77
2018-06-11T12:29:50.840Z,23.96
2018-06-11T12:34:45.803Z,23.69
2018-06-11T12:39:40.676Z,23.48
2018-06-11T12:44:35.562Z,24.03
2018-06-11T12:49:30.462Z,24.37
2018-06-11T12:54:25.186Z,24.71
2018-06-11T12:59:32.788Z,25.07
2018-06-11T13:04:27.529Z,25.46
2018-06-11T13:09:22.227Z,25.22
2018-06-11T13:14:16.830Z,25.36
2018-06-11T13:19:11.486Z,25.06
2018-06-11T13:24:06.184Z,25.04
2018-06-11T13:29:00.782Z,25.07
2018-06-11T13:33:55.445Z,25.00
2018-06-11T13:38:50.062Z,24.49
2018-06-11T13:43:44.696Z,23.83
2018-06-11T13:48:39.316Z,23.34
2018-06-11T13:53:33.842Z,23.07
2018-06-11T13:58:28.474Z,23.13
2018-06-11T14:03:23.041Z,23.16
2018-06-11T14:08:17.684Z,23.19
2018-06-11T14:13:12.190Z,23.12
2018-06-11T14:18:06.834Z,22.97
2018-06-11T14:23:01.391Z,22.67
2018-06-11T14:27:56.029Z,22.25
2018-06-11T14:32:54.752Z,21.43
2018-06-11T14:37:50.437Z,20.90
2018-06-11T14:42:45.372Z,21.21
2018-06-11T14:48:06.707Z,21.77
2018-06-11T14:53:01.343Z,22.19
2018-06-11T14:57:56.140Z,22.42
2018-06-11T15:02:51.376Z,22.62
2018-06-11T15:07:46.691Z,22.48
2018-06-11T15:12:49.056Z,22.31
2018-06-11T15:18:09.777Z,22.25
2018-06-11T15:23:05.124Z,22.33
2018-06-11T15:28:03.011Z,22.39
2018-06-11T15:38:23.757Z,22.36
2018-06-11T15:48:43.772Z,22.55
2018-06-11T15:53:39.171Z,22.35
2018-06-11T15:58:33.885Z,22.22
2018-06-11T16:03:28.825Z,22.43
2018-06-11T16:08:23.951Z,22.04
2018-06-11T16:14:10.438Z,22.25
2018-06-11T16:19:05.570Z,21.93
2018-06-11T16:24:00.382Z,21.52
2018-06-11T16:28:55.229Z,21.40
2018-06-11T16:33:50.027Z,21.25
2018-06-11T16:38:44.984Z,21.43
2018-06-11T16:43:39.823Z,21.55
2018-06-11T16:48:35.187Z,21.92
2018-06-11T16:53:30.223Z,22.40
2018-06-11T16:58:26.096Z,22.17
2018-06-11T17:03:40.175Z,22.25
2018-06-11T17:35:45.191Z,21.80
2018-06-11T17:40:39.861Z,21.63
2018-06-11T17:45:34.539Z,21.63
2018-06-11T17:50:29.214Z,21.49
2018-06-11T17:55:23.878Z,21.31
2018-06-11T18:00:18.528Z,21.07
2018-06-11T18:05:13.187Z,20.95
2018-06-11T18:10:07.947Z,20.98
2018-06-11T18:15:02.775Z,20.93
2018-06-11T18:19:57.478Z,20.88
2018-06-11T18:24:52.454Z,20.93
2018-06-11T18:29:47.151Z,20.84
2018-06-11T18:34:42.185Z,20.70
2018-06-11T18:39:36.902Z,20.61
2018-06-11T18:44:31.827Z,20.49
2018-06-11T18:49:26.478Z,20.44
2018-06-11T18:54:21.094Z,20.33
2018-06-11T18:59:15.844Z,20.43
2018-06-11T19:04:10.596Z,20.22
2018-06-11T19:09:07.807Z,19.91
2018-06-11T19:14:02.515Z,19.78
2018-06-11T19:18:57.346Z,19.59
2018-06-11T19:23:52.067Z,19.72
2018-06-11T19:28:46.749Z,19.78
2018-06-11T19:33:41.638Z,19.75
2018-06-11T19:38:36.326Z,19.64
2018-06-11T19:43:31.183Z,19.78
2018-06-11T19:48:25.862Z,19.56
2018-06-11T19:53:20.602Z,19.61
2018-06-11T19:58:15.302Z,19.75
2018-06-11T20:03:09.614Z,19.68
2018-06-11T20:08:04.252Z,19.58
2018-06-11T20:12:58.919Z,19.53
2018-06-11T20:17:53.606Z,19.55
2018-06-11T20:22:48.233Z,19.36
2018-06-11T20:27:42.949Z,19.51
2018-06-11T20:32:37.646Z,19.53
2018-06-11T20:37:32.309Z,19.47
2018-06-11T20:42:26.968Z,19.45
2018-06-11T20:47:21.716Z,19.47
2018-06-11T20:52:16.338Z,19.52
2018-06-11T20:57:10.999Z,19.45
2018-06-11T21:02:05.779Z,19.30
2018-06-11T21:07:00.403Z,19.42
2018-06-11T21:11:55.068Z,19.50
2018-06-11T21:16:49.678Z,19.30
2018-06-11T21:21:44.299Z,19.32
2018-06-11T21:26:38.896Z,19.38
2018-06-11T21:31:33.609Z,19.40
2018-06-11T21:36:28.254Z,19.41
2018-06-11T21:41:22.531Z,19.17
2018-06-11T21:46:17.233Z,19.04
2018-06-11T21:51:11.822Z,19.25
2018-06-11T21:56:06.432Z,19.26
2018-06-11T22:01:01.076Z,19.27
2018-06-11T22:05:55.692Z,19.15
2018-06-11T22:10:50.360Z,18.98
2018-06-11T22:15:44.916Z,18.78
2018-06-11T22:20:39.566Z,18.74
2018-06-11T22:25:34.196Z,18.72
2018-06-11T22:30:29.179Z,18.67
2018-06-11T22:35:23.730Z,18.62
2018-06-11T22:40:18.635Z,18.48
2018-06-11T22:45:13.243Z,18.28
2018-06-11T22:50:07.882Z,18.36
2018-06-11T22:55:02.486Z,18.38
2018-06-11T22:59:57.050Z,18.58
2018-06-11T23:04:51.758Z,18.53
2018-06-11T23:09:46.366Z,18.42
2018-06-11T23:14:40.955Z,18.26
2018-06-11T23:19:35.522Z,18.32
2018-06-11T23:24:30.086Z,18.13
2018-06-11T23:29:24.655Z,18.24
2018-06-11T23:34:19.258Z,18.23
2018-06-11T23:39:13.883Z,18.02
2018-06-11T23:44:08.491Z,18.09
2018-06-11T23:49:03.100Z,18.06
2018-06-11T23:53:57.694Z,18.06
2018-06-11T23:58:52.548Z,17.99
